Aviation Digital Data Service (ADDS)

Output produced by TAFs form (1640 UTC 30 October 2014)
found at http://aviationweather.gov/adds/tafs/
 
KDRO 301122Z 3012/3112 02004KT P6SM SKC 
     FM301900 22006KT P6SM FEW250 
     FM310200 02004KT P6SM SKC